Westworth Village, Texas
Current Conditions -  °F | °C
As of 5:52 AM on Monday 20 Oct 2014 (Local Time) from KNFW Reporting Station
Scattered Clouds Scattered Clouds  
Wind Chill: 65°   Ceiling: Unl
Heat Index: 65°   Visibility: 10mi
Dew Point: 57°   Wind: 0mph
Humidity: 75%   Direction: NA
Pressure: 30.1"   Gusts: NA
Location:  32.7763°N, 97.4092°W
Report Text: KNFW 201052Z 00000KT 10SM SCT250 18/14 A3010 RMK AO2 SLP174 T01830139 VISNO N $
Loading
Personal Weather Stations






























Interactive Weather Map
Tropical Storm Tracking
New forecast layout! Learn more

10-Day Weather Forecast

Advertisements
Track Severe Weather on mobile